createdAt,value
2019-02-12T00:07:01.493Z,0.0
2019-02-12T00:17:01.478Z,0.0
2019-02-12T00:32:01.595Z,0.0
2019-02-12T00:37:01.491Z,0.0
2019-02-12T00:42:01.470Z,0.0
2019-02-12T00:52:01.546Z,0.0
2019-02-12T01:02:01.494Z,0.0
2019-02-12T01:12:01.493Z,0.0
2019-02-12T01:17:01.501Z,0.0
2019-02-12T01:22:01.418Z,0.0
2019-02-12T01:37:01.570Z,0.0
2019-02-12T01:42:01.434Z,0.0
2019-02-12T01:47:01.493Z,0.0
2019-02-12T01:52:01.431Z,0.0
2019-02-12T01:57:01.489Z,0.0
2019-02-12T02:02:01.427Z,0.0
2019-02-12T02:07:01.563Z,0.0
2019-02-12T02:12:01.490Z,0.0
2019-02-12T02:17:01.557Z,0.0
2019-02-12T02:22:01.415Z,0.0
2019-02-12T02:27:01.493Z,0.0
2019-02-12T02:42:01.508Z,0.0
2019-02-12T02:52:01.498Z,0.0
2019-02-12T03:02:01.533Z,0.1
2019-02-12T03:07:01.701Z,0.1
2019-02-12T03:17:01.544Z,0.1
2019-02-12T03:22:04.284Z,0.1
2019-02-12T03:27:01.507Z,0.0
2019-02-12T03:32:01.429Z,0.0
2019-02-12T03:37:01.494Z,0.0
2019-02-12T03:42:02.114Z,0.0
2019-02-12T03:52:01.493Z,0.0
2019-02-12T04:07:01.504Z,0.0
2019-02-12T04:17:01.489Z,0.0
2019-02-12T04:22:01.433Z,0.0
2019-02-12T04:27:01.569Z,0.0
2019-02-12T04:32:01.433Z,0.0
2019-02-12T04:37:01.504Z,0.0
2019-02-12T04:43:01.486Z,0.0
2019-02-12T04:48:01.613Z,0.0
2019-02-12T04:58:01.560Z,0.0
2019-02-12T05:03:01.435Z,0.0
2019-02-12T05:08:01.506Z,0.1
2019-02-12T05:13:02.444Z,0.9
2019-02-12T05:18:01.498Z,1.2
2019-02-12T05:23:01.430Z,1.5
2019-02-12T05:28:01.562Z,1.5
2019-02-12T05:33:01.504Z,2.5
2019-02-12T05:38:01.568Z,2.4
2019-02-12T05:43:01.437Z,2.1
2019-02-12T05:48:01.510Z,1.7
2019-02-12T05:53:01.435Z,1.7
2019-02-12T05:58:01.511Z,0.7
2019-02-12T06:03:01.427Z,0.1
2019-02-12T06:08:01.480Z,0.6
2019-02-12T06:13:01.437Z,0.7
2019-02-12T06:18:01.546Z,0.6
2019-02-12T06:28:01.494Z,0.7
2019-02-12T06:33:08.136Z,0.3
2019-02-12T06:38:01.440Z,0.2
2019-02-12T06:43:01.428Z,0.2
2019-02-12T06:48:01.553Z,0.1
2019-02-12T06:53:01.428Z,0.0
2019-02-12T06:59:01.651Z,0.0
2019-02-12T07:04:01.441Z,0.0
2019-02-12T07:09:01.417Z,0.0
2019-02-12T07:24:01.491Z,0.1
2019-02-12T07:29:01.425Z,0.1
2019-02-12T07:39:01.501Z,0.2
2019-02-12T07:55:01.603Z,0.0
2019-02-12T08:15:01.033Z,0.2
2019-02-12T08:35:01.251Z,0.0
2019-02-12T08:40:01.265Z,0.0
2019-02-12T08:45:01.232Z,0.0
2019-02-12T08:50:01.161Z,0.1
2019-02-12T08:55:01.245Z,0.0
2019-02-12T09:00:03.938Z,0.1
2019-02-12T09:15:01.293Z,0.1
2019-02-12T09:35:00.903Z,0.0
2019-02-12T09:45:00.895Z,0.0
2019-02-12T10:05:01.243Z,0.4
2019-02-12T10:25:01.492Z,0.7
2019-02-12T10:30:01.468Z,0.3
2019-02-12T10:35:01.667Z,0.2
2019-02-12T10:45:06.480Z,0.1
2019-02-12T10:50:01.413Z,0.0
2019-02-12T10:55:01.481Z,0.0
2019-02-12T11:00:01.438Z,0.0
2019-02-12T11:10:01.486Z,0.0
2019-02-12T11:15:01.551Z,0.0
2019-02-12T11:20:01.441Z,0.0
2019-02-12T11:25:01.497Z,0.0
2019-02-12T11:30:01.423Z,0.0
2019-02-12T11:35:01.564Z,0.0
2019-02-12T11:45:01.618Z,0.0
2019-02-12T11:50:01.438Z,0.0
2019-02-12T11:55:01.507Z,0.0
2019-02-12T12:00:01.517Z,0.0
2019-02-12T12:10:02.995Z,0.0
2019-02-12T12:15:01.543Z,0.0
2019-02-12T12:20:01.435Z,0.0
2019-02-12T12:30:01.422Z,0.0
2019-02-12T12:40:01.510Z,0.0
2019-02-12T12:45:01.670Z,0.0
2019-02-12T12:50:01.432Z,0.0
2019-02-12T12:55:01.551Z,0.1
2019-02-12T13:00:01.445Z,0.1
2019-02-12T13:05:03.038Z,0.1
2019-02-12T13:10:01.443Z,0.1
2019-02-12T13:15:01.498Z,0.1
2019-02-12T13:20:01.691Z,0.0
2019-02-12T13:25:09.216Z,0.0
2019-02-12T13:30:01.433Z,0.0
2019-02-12T13:35:01.512Z,0.0
2019-02-12T13:45:06.560Z,0.0
2019-02-12T14:05:00.942Z,0.0
2019-02-12T14:10:00.740Z,0.0
2019-02-12T14:15:00.668Z,0.0
2019-02-12T14:20:00.716Z,0.0
2019-02-12T14:25:00.799Z,0.0
2019-02-12T14:30:00.675Z,0.0
2019-02-12T14:35:01.055Z,0.0
2019-02-12T14:40:01.365Z,0.0
2019-02-12T14:45:00.879Z,0.0
2019-02-12T14:50:01.276Z,0.0
2019-02-12T14:55:00.814Z,0.0
2019-02-12T15:00:00.684Z,0.0
2019-02-12T15:05:01.326Z,0.0
2019-02-12T15:10:01.095Z,0.0
2019-02-12T15:15:00.818Z,0.0
2019-02-12T15:20:00.743Z,0.0
2019-02-12T15:25:00.762Z,0.0
2019-02-12T15:30:00.689Z,0.0
2019-02-12T15:35:00.717Z,0.1
2019-02-12T15:40:00.690Z,0.2
2019-02-12T15:45:00.890Z,0.2
2019-02-12T15:50:00.926Z,0.4
2019-02-12T15:55:03.466Z,0.5
2019-02-12T16:00:00.722Z,0.4
2019-02-12T16:05:00.758Z,0.4
2019-02-12T16:10:01.274Z,0.4
2019-02-12T16:15:01.987Z,0.2
2019-02-12T16:20:00.714Z,0.1
2019-02-12T16:25:00.771Z,0.3
2019-02-12T16:30:01.809Z,0.3
2019-02-12T16:35:00.866Z,0.3
2019-02-12T16:40:00.720Z,0.4
2019-02-12T16:45:02.474Z,0.4
2019-02-12T16:50:00.813Z,0.3
2019-02-12T17:00:00.839Z,0.3
2019-02-12T17:05:00.782Z,0.3
2019-02-12T17:10:00.707Z,0.2
2019-02-12T17:15:00.780Z,0.3
2019-02-12T17:30:00.852Z,0.2
2019-02-12T17:40:00.850Z,0.2
2019-02-12T17:45:00.947Z,0.2
2019-02-12T17:50:00.765Z,0.2
2019-02-12T18:00:00.890Z,0.3
2019-02-12T18:05:00.825Z,0.3
2019-02-12T18:10:00.792Z,0.4
2019-02-12T18:15:00.846Z,0.4
2019-02-12T18:25:00.862Z,0.4
2019-02-12T18:30:00.779Z,0.4
2019-02-12T18:40:00.936Z,0.4
2019-02-12T18:45:02.339Z,0.5
2019-02-12T18:50:00.771Z,0.5
2019-02-12T19:00:01.650Z,0.5
2019-02-12T19:15:01.032Z,0.5
2019-02-12T19:25:00.851Z,0.5
2019-02-12T19:30:00.830Z,0.5
2019-02-12T19:45:00.881Z,0.5
2019-02-12T19:50:00.762Z,0.5
2019-02-12T19:55:00.897Z,0.4
2019-02-12T20:00:01.111Z,0.4
2019-02-12T20:10:01.943Z,0.4
2019-02-12T20:15:00.852Z,0.3
2019-02-12T20:25:01.026Z,0.3
2019-02-12T20:30:00.778Z,0.3
2019-02-12T20:45:02.248Z,0.4
2019-02-12T21:00:00.851Z,0.4
2019-02-12T21:10:00.945Z,0.4
2019-02-12T21:15:01.166Z,0.4
2019-02-12T21:20:00.824Z,0.3
2019-02-12T21:30:00.846Z,0.3
2019-02-12T21:40:01.011Z,0.3
2019-02-12T21:45:01.579Z,0.3
2019-02-12T22:00:00.940Z,0.4
2019-02-12T22:05:01.053Z,0.4
2019-02-12T22:10:00.899Z,0.4
2019-02-12T22:15:00.998Z,0.4
2019-02-12T22:25:00.943Z,0.4
2019-02-12T22:30:00.808Z,0.4
2019-02-12T22:45:00.871Z,0.4
2019-02-12T22:50:00.827Z,0.4
2019-02-12T23:00:01.309Z,0.4
2019-02-12T23:10:00.877Z,0.4
2019-02-12T23:15:01.234Z,0.4
2019-02-12T23:25:00.887Z,0.4
2019-02-12T23:30:00.818Z,0.4
2019-02-12T23:40:00.889Z,0.4
2019-02-12T23:45:00.892Z,0.4
2019-02-12T23:55:02.075Z,0.4
